sensor_id;sensor_type;location;lat;lon;timestamp;temperature;humidity
11446;DHT22;5779;64.178;15.432;2022-08-21T00:01:37;16.60;99.90
11446;DHT22;5779;64.178;15.432;2022-08-21T00:04:25;16.60;99.90
11446;DHT22;5779;64.178;15.432;2022-08-21T00:07:12;16.60;99.90
11446;DHT22;5779;64.178;15.432;2022-08-21T00:09:59;16.60;99.90
11446;DHT22;5779;64.178;15.432;2022-08-21T00:12:46;16.70;99.90
11446;DHT22;5779;64.178;15.432;2022-08-21T00:15:36;16.70;99.90
11446;DHT22;5779;64.178;15.432;2022-08-21T00:18:22;16.60;99.90
11446;DHT22;5779;64.178;15.432;2022-08-21T00:21:11;16.70;99.90
11446;DHT22;5779;64.178;15.432;2022-08-21T00:23:58;16.70;99.90
11446;DHT22;5779;64.178;15.432;2022-08-21T00:26:44;16.70;99.90
11446;DHT22;5779;64.178;15.432;2022-08-21T00:29:32;16.80;99.90
11446;DHT22;5779;64.178;15.432;2022-08-21T00:32:20;16.70;99.90
11446;DHT22;5779;64.178;15.432;2022-08-21T00:35:10;16.60;99.90
11446;DHT22;5779;64.178;15.432;2022-08-21T00:37:59;16.70;99.90
11446;DHT22;5779;64.178;15.432;2022-08-21T00:40:49;16.60;99.90
11446;DHT22;5779;64.178;15.432;2022-08-21T00:43:37;16.60;99.90
11446;DHT22;5779;64.178;15.432;2022-08-21T00:46:25;16.50;99.90
11446;DHT22;5779;64.178;15.432;2022-08-21T00:49:12;16.50;99.90
11446;DHT22;5779;64.178;15.432;2022-08-21T00:52:00;16.50;99.90
11446;DHT22;5779;64.178;15.432;2022-08-21T00:54:49;16.50;99.90
11446;DHT22;5779;64.178;15.432;2022-08-21T00:57:40;16.40;99.90
11446;DHT22;5779;64.178;15.432;2022-08-21T01:00:33;16.40;99.90
11446;DHT22;5779;64.178;15.432;2022-08-21T01:03:23;16.40;99.90
11446;DHT22;5779;64.178;15.432;2022-08-21T01:06:10;16.40;99.90
11446;DHT22;5779;64.178;15.432;2022-08-21T01:08:57;16.40;99.90
11446;DHT22;5779;64.178;15.432;2022-08-21T01:11:45;16.30;99.90
11446;DHT22;5779;64.178;15.432;2022-08-21T01:14:32;16.30;99.90
11446;DHT22;5779;64.178;15.432;2022-08-21T01:17:19;16.30;99.90
11446;DHT22;5779;64.178;15.432;2022-08-21T01:20:09;16.30;99.90
11446;DHT22;5779;64.178;15.432;2022-08-21T01:22:58;16.40;99.90
11446;DHT22;5779;64.178;15.432;2022-08-21T01:25:44;16.40;99.90
11446;DHT22;5779;64.178;15.432;2022-08-21T01:28:36;16.40;99.90
11446;DHT22;5779;64.178;15.432;2022-08-21T01:31:27;16.40;99.90
11446;DHT22;5779;64.178;15.432;2022-08-21T01:34:15;16.40;99.90
11446;DHT22;5779;64.178;15.432;2022-08-21T01:37:01;16.30;99.90
11446;DHT22;5779;64.178;15.432;2022-08-21T01:39:50;16.40;99.90
11446;DHT22;5779;64.178;15.432;2022-08-21T01:42:37;16.50;99.90
11446;DHT22;5779;64.178;15.432;2022-08-21T01:45:24;16.50;99.90
11446;DHT22;5779;64.178;15.432;2022-08-21T01:48:11;16.50;99.90
11446;DHT22;5779;64.178;15.432;2022-08-21T01:50:57;16.50;99.90
11446;DHT22;5779;64.178;15.432;2022-08-21T01:53:44;16.50;99.90
11446;DHT22;5779;64.178;15.432;2022-08-21T01:56:37;16.60;99.90
11446;DHT22;5779;64.178;15.432;2022-08-21T01:59:24;16.50;99.90
11446;DHT22;5779;64.178;15.432;2022-08-21T02:02:11;16.50;99.90
11446;DHT22;5779;64.178;15.432;2022-08-21T02:04:57;16.50;99.90
11446;DHT22;5779;64.178;15.432;2022-08-21T02:07:46;16.50;99.90
11446;DHT22;5779;64.178;15.432;2022-08-21T02:10:33;16.60;99.90
11446;DHT22;5779;64.178;15.432;2022-08-21T02:13:21;16.60;99.90
11446;DHT22;5779;64.178;15.432;2022-08-21T02:16:08;16.60;99.90
11446;DHT22;5779;64.178;15.432;2022-08-21T02:18:55;16.60;99.90
11446;DHT22;5779;64.178;15.432;2022-08-21T02:21:42;16.50;99.90
11446;DHT22;5779;64.178;15.432;2022-08-21T02:24:29;16.50;99.90
11446;DHT22;5779;64.178;15.432;2022-08-21T02:27:16;16.50;99.90
11446;DHT22;5779;64.178;15.432;2022-08-21T02:30:05;16.50;99.90
11446;DHT22;5779;64.178;15.432;2022-08-21T02:32:52;16.50;99.90
11446;DHT22;5779;64.178;15.432;2022-08-21T02:35:40;16.50;99.90
11446;DHT22;5779;64.178;15.432;2022-08-21T02:38:29;16.50;99.90
11446;DHT22;5779;64.178;15.432;2022-08-21T02:41:19;16.40;99.90
11446;DHT22;5779;64.178;15.432;2022-08-21T02:44:06;16.50;99.90
11446;DHT22;5779;64.178;15.432;2022-08-21T02:46:54;16.40;99.90
11446;DHT22;5779;64.178;15.432;2022-08-21T02:49:41;16.40;99.90
11446;DHT22;5779;64.178;15.432;2022-08-21T02:52:28;16.30;99.90
11446;DHT22;5779;64.178;15.432;2022-08-21T02:55:14;16.30;99.90
11446;DHT22;5779;64.178;15.432;2022-08-21T02:58:02;16.30;99.90
11446;DHT22;5779;64.178;15.432;2022-08-21T03:00:49;16.40;99.90
11446;DHT22;5779;64.178;15.432;2022-08-21T03:03:39;16.30;99.90
11446;DHT22;5779;64.178;15.432;2022-08-21T03:06:26;16.20;99.90
11446;DHT22;5779;64.178;15.432;2022-08-21T03:09:14;16.20;99.90
11446;DHT22;5779;64.178;15.432;2022-08-21T03:12:01;16.20;99.90
11446;DHT22;5779;64.178;15.432;2022-08-21T03:14:48;16.30;99.90
11446;DHT22;5779;64.178;15.432;2022-08-21T03:17:35;16.30;99.90
11446;DHT22;5779;64.178;15.432;2022-08-21T03:20:26;16.30;99.90
11446;DHT22;5779;64.178;15.432;2022-08-21T03:23:13;16.30;99.90
11446;DHT22;5779;64.178;15.432;2022-08-21T03:26:00;16.30;99.90
11446;DHT22;5779;64.178;15.432;2022-08-21T03:28:47;16.40;99.90
11446;DHT22;5779;64.178;15.432;2022-08-21T03:31:35;16.50;99.90
11446;DHT22;5779;64.178;15.432;2022-08-21T03:34:22;16.40;99.90
11446;DHT22;5779;64.178;15.432;2022-08-21T03:37:11;16.50;99.90
11446;DHT22;5779;64.178;15.432;2022-08-21T03:39:58;16.60;99.90
11446;DHT22;5779;64.178;15.432;2022-08-21T03:42:44;16.60;99.90
11446;DHT22;5779;64.178;15.432;2022-08-21T03:45:32;16.60;99.90
11446;DHT22;5779;64.178;15.432;2022-08-21T03:48:19;16.60;99.90
11446;DHT22;5779;64.178;15.432;2022-08-21T03:51:07;16.60;99.90
11446;DHT22;5779;64.178;15.432;2022-08-21T03:53:55;16.60;99.90
11446;DHT22;5779;64.178;15.432;2022-08-21T03:56:42;16.60;99.90
11446;DHT22;5779;64.178;15.432;2022-08-21T03:59:28;16.70;99.90
11446;DHT22;5779;64.178;15.432;2022-08-21T04:02:17;16.70;99.90
11446;DHT22;5779;64.178;15.432;2022-08-21T04:05:06;16.80;99.90
11446;DHT22;5779;64.178;15.432;2022-08-21T04:07:54;16.80;99.90
11446;DHT22;5779;64.178;15.432;2022-08-21T04:10:43;16.90;99.90
11446;DHT22;5779;64.178;15.432;2022-08-21T04:13:30;16.90;99.90
11446;DHT22;5779;64.178;15.432;2022-08-21T04:16:17;17.00;99.90
11446;DHT22;5779;64.178;15.432;2022-08-21T04:19:04;17.00;99.90
11446;DHT22;5779;64.178;15.432;2022-08-21T04:21:50;17.10;99.90
11446;DHT22;5779;64.178;15.432;2022-08-21T04:24:37;17.10;99.90
11446;DHT22;5779;64.178;15.432;2022-08-21T04:27:25;17.00;99.90
11446;DHT22;5779;64.178;15.432;2022-08-21T04:30:13;17.00;99.90
11446;DHT22;5779;64.178;15.432;2022-08-21T04:32:59;17.10;99.90
11446;DHT22;5779;64.178;15.432;2022-08-21T04:35:46;17.10;99.90
11446;DHT22;5779;64.178;15.432;2022-08-21T04:38:34;17.10;99.90
11446;DHT22;5779;64.178;15.432;2022-08-21T04:41:20;17.00;99.90
11446;DHT22;5779;64.178;15.432;2022-08-21T04:44:09;17.00;99.90
11446;DHT22;5779;64.178;15.432;2022-08-21T04:46:55;17.10;99.90
11446;DHT22;5779;64.178;15.432;2022-08-21T04:49:42;17.00;99.90
11446;DHT22;5779;64.178;15.432;2022-08-21T04:52:29;17.10;99.90
11446;DHT22;5779;64.178;15.432;2022-08-21T04:55:17;17.10;99.90
11446;DHT22;5779;64.178;15.432;2022-08-21T04:58:05;17.10;99.90
11446;DHT22;5779;64.178;15.432;2022-08-21T05:00:56;17.20;99.90
11446;DHT22;5779;64.178;15.432;2022-08-21T05:03:44;17.10;99.90
11446;DHT22;5779;64.178;15.432;2022-08-21T05:06:33;17.10;99.90
11446;DHT22;5779;64.178;15.432;2022-08-21T05:09:22;17.20;99.90
11446;DHT22;5779;64.178;15.432;2022-08-21T05:12:10;17.20;99.90
11446;DHT22;5779;64.178;15.432;2022-08-21T05:14:56;17.20;99.90
11446;DHT22;5779;64.178;15.432;2022-08-21T05:17:45;17.20;99.90
11446;DHT22;5779;64.178;15.432;2022-08-21T05:20:33;17.20;99.90
11446;DHT22;5779;64.178;15.432;2022-08-21T05:23:20;17.30;99.90
11446;DHT22;5779;64.178;15.432;2022-08-21T05:26:07;17.30;99.90
11446;DHT22;5779;64.178;15.432;2022-08-21T05:28:53;17.40;99.90
11446;DHT22;5779;64.178;15.432;2022-08-21T05:31:40;17.40;99.90
11446;DHT22;5779;64.178;15.432;2022-08-21T05:34:28;17.50;99.90
11446;DHT22;5779;64.178;15.432;2022-08-21T05:37:15;17.50;99.90
11446;DHT22;5779;64.178;15.432;2022-08-21T05:40:03;17.50;99.90
11446;DHT22;5779;64.178;15.432;2022-08-21T05:42:51;17.50;99.90
11446;DHT22;5779;64.178;15.432;2022-08-21T05:45:38;17.50;99.90
11446;DHT22;5779;64.178;15.432;2022-08-21T05:48:24;17.60;99.90
11446;DHT22;5779;64.178;15.432;2022-08-21T05:51:14;17.60;99.90
11446;DHT22;5779;64.178;15.432;2022-08-21T05:54:01;17.60;99.90
11446;DHT22;5779;64.178;15.432;2022-08-21T05:56:48;17.60;99.90
11446;DHT22;5779;64.178;15.432;2022-08-21T05:59:34;17.60;99.90
11446;DHT22;5779;64.178;15.432;2022-08-21T06:02:21;17.60;99.90
11446;DHT22;5779;64.178;15.432;2022-08-21T06:05:08;17.50;99.90
11446;DHT22;5779;64.178;15.432;2022-08-21T06:07:56;17.60;99.90
11446;DHT22;5779;64.178;15.432;2022-08-21T06:10:43;17.50;99.90
11446;DHT22;5779;64.178;15.432;2022-08-21T06:13:30;17.50;99.90
11446;DHT22;5779;64.178;15.432;2022-08-21T06:16:17;17.60;99.90
11446;DHT22;5779;64.178;15.432;2022-08-21T06:19:03;17.70;99.90
11446;DHT22;5779;64.178;15.432;2022-08-21T06:21:50;17.70;99.90
11446;DHT22;5779;64.178;15.432;2022-08-21T06:24:38;17.70;99.90
11446;DHT22;5779;64.178;15.432;2022-08-21T06:27:25;17.70;99.90
11446;DHT22;5779;64.178;15.432;2022-08-21T06:30:12;17.80;99.90
11446;DHT22;5779;64.178;15.432;2022-08-21T06:32:58;17.80;99.90
11446;DHT22;5779;64.178;15.432;2022-08-21T06:35:45;17.70;99.90
11446;DHT22;5779;64.178;15.432;2022-08-21T06:38:32;17.70;99.90
11446;DHT22;5779;64.178;15.432;2022-08-21T06:41:20;17.90;99.90
11446;DHT22;5779;64.178;15.432;2022-08-21T06:44:06;17.90;99.90
11446;DHT22;5779;64.178;15.432;2022-08-21T06:46:53;17.90;99.90
11446;DHT22;5779;64.178;15.432;2022-08-21T06:49:40;18.00;99.90
11446;DHT22;5779;64.178;15.432;2022-08-21T06:52:27;18.10;99.90
11446;DHT22;5779;64.178;15.432;2022-08-21T06:55:13;18.00;99.90
11446;DHT22;5779;64.178;15.432;2022-08-21T06:58:01;17.90;99.90
11446;DHT22;5779;64.178;15.432;2022-08-21T07:00:49;17.80;99.90
11446;DHT22;5779;64.178;15.432;2022-08-21T07:03:40;17.70;99.90
11446;DHT22;5779;64.178;15.432;2022-08-21T07:06:27;17.70;99.90
11446;DHT22;5779;64.178;15.432;2022-08-21T07:09:14;17.60;99.90
11446;DHT22;5779;64.178;15.432;2022-08-21T07:12:02;17.70;99.90
11446;DHT22;5779;64.178;15.432;2022-08-21T07:14:51;17.70;99.90
11446;DHT22;5779;64.178;15.432;2022-08-21T07:17:37;17.70;99.90
11446;DHT22;5779;64.178;15.432;2022-08-21T07:20:25;17.80;99.90
11446;DHT22;5779;64.178;15.432;2022-08-21T07:23:28;17.80;99.90
11446;DHT22;5779;64.178;15.432;2022-08-21T07:26:17;17.80;99.90
11446;DHT22;5779;64.178;15.432;2022-08-21T07:29:06;17.70;99.90
11446;DHT22;5779;64.178;15.432;2022-08-21T07:31:53;17.70;99.90
11446;DHT22;5779;64.178;15.432;2022-08-21T07:34:40;17.80;99.90
11446;DHT22;5779;64.178;15.432;2022-08-21T07:37:27;17.80;99.90
11446;DHT22;5779;64.178;15.432;2022-08-21T07:40:14;17.90;99.90
11446;DHT22;5779;64.178;15.432;2022-08-21T07:43:00;17.90;99.90
11446;DHT22;5779;64.178;15.432;2022-08-21T07:45:47;17.90;99.90
11446;DHT22;5779;64.178;15.432;2022-08-21T07:48:36;18.00;99.90
11446;DHT22;5779;64.178;15.432;2022-08-21T07:51:26;18.10;99.90
11446;DHT22;5779;64.178;15.432;2022-08-21T07:54:14;18.10;99.90
11446;DHT22;5779;64.178;15.432;2022-08-21T07:57:01;18.20;99.90
11446;DHT22;5779;64.178;15.432;2022-08-21T07:59:47;18.20;99.90
11446;DHT22;5779;64.178;15.432;2022-08-21T08:02:34;18.40;99.90
11446;DHT22;5779;64.178;15.432;2022-08-21T08:05:25;18.40;99.90
11446;DHT22;5779;64.178;15.432;2022-08-21T08:08:12;18.40;99.90
11446;DHT22;5779;64.178;15.432;2022-08-21T08:10:59;18.20;99.90
11446;DHT22;5779;64.178;15.432;2022-08-21T08:13:48;18.20;99.90
11446;DHT22;5779;64.178;15.432;2022-08-21T08:16:35;18.20;99.90
11446;DHT22;5779;64.178;15.432;2022-08-21T08:19:22;18.30;99.90
11446;DHT22;5779;64.178;15.432;2022-08-21T08:22:18;18.40;99.90
11446;DHT22;5779;64.178;15.432;2022-08-21T08:25:07;18.60;99.90
11446;DHT22;5779;64.178;15.432;2022-08-21T08:27:54;18.50;99.90
11446;DHT22;5779;64.178;15.432;2022-08-21T08:30:40;18.60;99.90
11446;DHT22;5779;64.178;15.432;2022-08-21T08:33:27;18.50;99.90
11446;DHT22;5779;64.178;15.432;2022-08-21T08:36:15;18.50;99.90
11446;DHT22;5779;64.178;15.432;2022-08-21T08:39:04;18.60;99.90
11446;DHT22;5779;64.178;15.432;2022-08-21T08:41:54;18.70;99.90
11446;DHT22;5779;64.178;15.432;2022-08-21T08:44:43;18.50;99.90
11446;DHT22;5779;64.178;15.432;2022-08-21T08:47:32;18.30;99.90
11446;DHT22;5779;64.178;15.432;2022-08-21T08:50:24;18.10;99.90
11446;DHT22;5779;64.178;15.432;2022-08-21T08:53:14;18.20;99.90
11446;DHT22;5779;64.178;15.432;2022-08-21T08:56:04;18.40;99.90
11446;DHT22;5779;64.178;15.432;2022-08-21T08:58:52;18.60;99.90
11446;DHT22;5779;64.178;15.432;2022-08-21T09:01:39;18.70;99.90
11446;DHT22;5779;64.178;15.432;2022-08-21T09:04:27;18.70;99.90
11446;DHT22;5779;64.178;15.432;2022-08-21T09:07:19;18.80;99.90
11446;DHT22;5779;64.178;15.432;2022-08-21T09:10:14;18.80;99.90
11446;DHT22;5779;64.178;15.432;2022-08-21T09:13:10;18.60;99.90
11446;DHT22;5779;64.178;15.432;2022-08-21T09:16:05;18.70;99.90
11446;DHT22;5779;64.178;15.432;2022-08-21T09:19:03;19.10;99.90
11446;DHT22;5779;64.178;15.432;2022-08-21T09:22:03;19.20;99.90
11446;DHT22;5779;64.178;15.432;2022-08-21T09:24:59;19.30;99.90
11446;DHT22;5779;64.178;15.432;2022-08-21T09:27:48;19.30;99.90
11446;DHT22;5779;64.178;15.432;2022-08-21T09:30:40;19.10;99.90
11446;DHT22;5779;64.178;15.432;2022-08-21T09:33:27;19.50;99.90
11446;DHT22;5779;64.178;15.432;2022-08-21T09:36:23;19.50;99.90
11446;DHT22;5779;64.178;15.432;2022-08-21T09:39:13;19.10;99.90
11446;DHT22;5779;64.178;15.432;2022-08-21T09:42:02;19.20;99.90
11446;DHT22;5779;64.178;15.432;2022-08-21T09:45:07;19.20;99.90
11446;DHT22;5779;64.178;15.432;2022-08-21T09:48:07;19.40;99.90
11446;DHT22;5779;64.178;15.432;2022-08-21T09:51:04;19.50;99.90
11446;DHT22;5779;64.178;15.432;2022-08-21T09:53:54;19.70;99.90
11446;DHT22;5779;64.178;15.432;2022-08-21T09:56:53;19.80;99.90
11446;DHT22;5779;64.178;15.432;2022-08-21T10:00:20;19.80;99.90
11446;DHT22;5779;64.178;15.432;2022-08-21T10:03:14;19.80;99.90
11446;DHT22;5779;64.178;15.432;2022-08-21T10:06:04;19.90;99.90
11446;DHT22;5779;64.178;15.432;2022-08-21T10:09:04;19.90;99.90
11446;DHT22;5779;64.178;15.432;2022-08-21T10:11:58;20.00;99.90
11446;DHT22;5779;64.178;15.432;2022-08-21T10:14:56;19.90;99.90
11446;DHT22;5779;64.178;15.432;2022-08-21T10:17:52;19.90;99.90
11446;DHT22;5779;64.178;15.432;2022-08-21T10:20:46;20.00;99.90
11446;DHT22;5779;64.178;15.432;2022-08-21T10:23:45;20.10;99.90
11446;DHT22;5779;64.178;15.432;2022-08-21T10:26:51;20.00;99.90
11446;DHT22;5779;64.178;15.432;2022-08-21T10:29:47;19.90;99.90
11446;DHT22;5779;64.178;15.432;2022-08-21T10:32:55;19.90;99.90
11446;DHT22;5779;64.178;15.432;2022-08-21T10:35:52;20.00;99.90
11446;DHT22;5779;64.178;15.432;2022-08-21T10:39:05;20.10;99.90
11446;DHT22;5779;64.178;15.432;2022-08-21T10:42:08;20.10;99.90
11446;DHT22;5779;64.178;15.432;2022-08-21T10:45:07;19.90;99.90
11446;DHT22;5779;64.178;15.432;2022-08-21T10:48:00;19.70;99.90
11446;DHT22;5779;64.178;15.432;2022-08-21T10:50:54;19.80;99.90
11446;DHT22;5779;64.178;15.432;2022-08-21T10:53:48;19.90;99.90
11446;DHT22;5779;64.178;15.432;2022-08-21T10:56:40;20.00;99.90
11446;DHT22;5779;64.178;15.432;2022-08-21T10:59:32;20.10;99.90
11446;DHT22;5779;64.178;15.432;2022-08-21T11:02:25;20.10;99.90
11446;DHT22;5779;64.178;15.432;2022-08-21T11:05:17;20.00;99.90
11446;DHT22;5779;64.178;15.432;2022-08-21T11:08:09;20.20;99.90
11446;DHT22;5779;64.178;15.432;2022-08-21T11:11:01;20.40;99.90
11446;DHT22;5779;64.178;15.432;2022-08-21T11:13:55;20.60;99.90
11446;DHT22;5779;64.178;15.432;2022-08-21T11:16:45;20.60;99.90
11446;DHT22;5779;64.178;15.432;2022-08-21T11:19:39;20.60;99.90
11446;DHT22;5779;64.178;15.432;2022-08-21T11:22:33;20.70;99.90
11446;DHT22;5779;64.178;15.432;2022-08-21T11:25:32;20.40;99.90
11446;DHT22;5779;64.178;15.432;2022-08-21T11:28:24;20.50;99.90
11446;DHT22;5779;64.178;15.432;2022-08-21T11:31:30;20.60;99.90
11446;DHT22;5779;64.178;15.432;2022-08-21T11:34:34;20.70;99.90
11446;DHT22;5779;64.178;15.432;2022-08-21T11:37:37;21.00;99.90
11446;DHT22;5779;64.178;15.432;2022-08-21T11:40:39;21.10;99.90
11446;DHT22;5779;64.178;15.432;2022-08-21T11:43:35;21.00;99.90
11446;DHT22;5779;64.178;15.432;2022-08-21T11:46:31;20.90;99.90
11446;DHT22;5779;64.178;15.432;2022-08-21T11:49:35;20.70;99.90
11446;DHT22;5779;64.178;15.432;2022-08-21T11:52:25;20.70;99.90
11446;DHT22;5779;64.178;15.432;2022-08-21T11:55:19;20.70;99.90
11446;DHT22;5779;64.178;15.432;2022-08-21T11:58:16;21.20;99.90
11446;DHT22;5779;64.178;15.432;2022-08-21T12:01:07;21.50;99.90
11446;DHT22;5779;64.178;15.432;2022-08-21T12:03:58;21.40;99.90
11446;DHT22;5779;64.178;15.432;2022-08-21T12:06:46;20.80;99.90
11446;DHT22;5779;64.178;15.432;2022-08-21T12:09:35;20.40;99.90
11446;DHT22;5779;64.178;15.432;2022-08-21T12:12:25;20.60;99.90
11446;DHT22;5779;64.178;15.432;2022-08-21T12:15:25;20.80;99.90
11446;DHT22;5779;64.178;15.432;2022-08-21T12:18:28;20.90;99.90
11446;DHT22;5779;64.178;15.432;2022-08-21T12:21:25;20.90;99.90
11446;DHT22;5779;64.178;15.432;2022-08-21T12:24:17;20.80;99.90
11446;DHT22;5779;64.178;15.432;2022-08-21T12:27:19;20.30;99.90
11446;DHT22;5779;64.178;15.432;2022-08-21T12:30:22;20.30;99.90
11446;DHT22;5779;64.178;15.432;2022-08-21T12:33:21;20.50;99.90
11446;DHT22;5779;64.178;15.432;2022-08-21T12:36:14;20.40;99.90
11446;DHT22;5779;64.178;15.432;2022-08-21T12:39:04;20.60;99.90
11446;DHT22;5779;64.178;15.432;2022-08-21T12:42:00;20.60;99.90
11446;DHT22;5779;64.178;15.432;2022-08-21T12:44:52;20.90;99.90
11446;DHT22;5779;64.178;15.432;2022-08-21T12:47:48;21.40;99.90
11446;DHT22;5779;64.178;15.432;2022-08-21T12:50:40;21.50;99.90
11446;DHT22;5779;64.178;15.432;2022-08-21T12:53:30;21.80;99.90
11446;DHT22;5779;64.178;15.432;2022-08-21T12:56:21;21.70;99.90
11446;DHT22;5779;64.178;15.432;2022-08-21T12:59:12;21.90;99.90
11446;DHT22;5779;64.178;15.432;2022-08-21T13:02:07;21.70;99.90
11446;DHT22;5779;64.178;15.432;2022-08-21T13:05:02;21.50;99.90
11446;DHT22;5779;64.178;15.432;2022-08-21T13:07:50;21.30;99.90
11446;DHT22;5779;64.178;15.432;2022-08-21T13:10:37;21.30;99.90
11446;DHT22;5779;64.178;15.432;2022-08-21T13:13:26;21.10;99.90
11446;DHT22;5779;64.178;15.432;2022-08-21T13:16:19;20.90;99.90
11446;DHT22;5779;64.178;15.432;2022-08-21T13:19:07;21.10;99.90
11446;DHT22;5779;64.178;15.432;2022-08-21T13:21:56;21.30;99.90
11446;DHT22;5779;64.178;15.432;2022-08-21T13:24:42;21.00;99.90
11446;DHT22;5779;64.178;15.432;2022-08-21T13:27:33;21.00;99.90
11446;DHT22;5779;64.178;15.432;2022-08-21T13:30:21;21.00;99.90
11446;DHT22;5779;64.178;15.432;2022-08-21T13:33:07;21.00;99.90
11446;DHT22;5779;64.178;15.432;2022-08-21T13:36:01;21.20;99.90
11446;DHT22;5779;64.178;15.432;2022-08-21T13:38:51;21.30;99.90
11446;DHT22;5779;64.178;15.432;2022-08-21T13:41:41;21.30;99.90
11446;DHT22;5779;64.178;15.432;2022-08-21T13:44:34;21.30;99.90
11446;DHT22;5779;64.178;15.432;2022-08-21T13:47:21;21.40;99.90
11446;DHT22;5779;64.178;15.432;2022-08-21T13:50:12;21.60;99.90
11446;DHT22;5779;64.178;15.432;2022-08-21T13:53:04;21.50;99.90
11446;DHT22;5779;64.178;15.432;2022-08-21T13:55:52;21.40;99.90
11446;DHT22;5779;64.178;15.432;2022-08-21T13:58:43;21.50;99.90
11446;DHT22;5779;64.178;15.432;2022-08-21T14:01:33;21.80;99.90
11446;DHT22;5779;64.178;15.432;2022-08-21T14:04:24;22.00;99.90
11446;DHT22;5779;64.178;15.432;2022-08-21T14:07:16;22.40;99.90
11446;DHT22;5779;64.178;15.432;2022-08-21T14:10:10;22.40;99.90
11446;DHT22;5779;64.178;15.432;2022-08-21T14:13:02;22.30;99.90
11446;DHT22;5779;64.178;15.432;2022-08-21T14:15:56;22.40;99.90
11446;DHT22;5779;64.178;15.432;2022-08-21T14:18:45;22.30;99.90
11446;DHT22;5779;64.178;15.432;2022-08-21T14:21:34;22.30;99.90
11446;DHT22;5779;64.178;15.432;2022-08-21T14:24:27;22.50;99.90
11446;DHT22;5779;64.178;15.432;2022-08-21T14:27:17;21.80;99.90
11446;DHT22;5779;64.178;15.432;2022-08-21T14:30:14;21.80;99.90
11446;DHT22;5779;64.178;15.432;2022-08-21T14:33:03;21.80;99.90
11446;DHT22;5779;64.178;15.432;2022-08-21T14:35:50;21.70;99.90
11446;DHT22;5779;64.178;15.432;2022-08-21T14:38:39;21.60;99.90
11446;DHT22;5779;64.178;15.432;2022-08-21T14:41:28;21.70;99.90
11446;DHT22;5779;64.178;15.432;2022-08-21T14:44:16;21.70;99.90
11446;DHT22;5779;64.178;15.432;2022-08-21T14:47:06;21.90;99.90
11446;DHT22;5779;64.178;15.432;2022-08-21T14:49:52;22.00;99.90
11446;DHT22;5779;64.178;15.432;2022-08-21T14:52:40;22.30;99.90
11446;DHT22;5779;64.178;15.432;2022-08-21T14:55:26;22.80;99.90
11446;DHT22;5779;64.178;15.432;2022-08-21T14:58:13;23.10;99.90
11446;DHT22;5779;64.178;15.432;2022-08-21T15:01:00;23.20;99.90
11446;DHT22;5779;64.178;15.432;2022-08-21T15:03:50;23.30;99.90
11446;DHT22;5779;64.178;15.432;2022-08-21T15:06:37;23.50;99.90
11446;DHT22;5779;64.178;15.432;2022-08-21T15:09:24;23.80;99.90
11446;DHT22;5779;64.178;15.432;2022-08-21T15:12:13;23.30;99.90
11446;DHT22;5779;64.178;15.432;2022-08-21T15:15:00;23.20;99.90
11446;DHT22;5779;64.178;15.432;2022-08-21T15:17:47;23.40;99.90
11446;DHT22;5779;64.178;15.432;2022-08-21T15:20:36;23.50;99.90
11446;DHT22;5779;64.178;15.432;2022-08-21T15:23:23;23.50;99.90
11446;DHT22;5779;64.178;15.432;2022-08-21T15:26:10;23.50;99.90
11446;DHT22;5779;64.178;15.432;2022-08-21T15:28:56;23.60;99.90
11446;DHT22;5779;64.178;15.432;2022-08-21T15:31:51;23.50;99.90
11446;DHT22;5779;64.178;15.432;2022-08-21T15:34:38;23.60;99.90
11446;DHT22;5779;64.178;15.432;2022-08-21T15:37:27;23.50;99.90
11446;DHT22;5779;64.178;15.432;2022-08-21T15:40:15;23.60;99.90
11446;DHT22;5779;64.178;15.432;2022-08-21T15:43:03;23.70;99.90
11446;DHT22;5779;64.178;15.432;2022-08-21T15:45:51;23.70;99.90
11446;DHT22;5779;64.178;15.432;2022-08-21T15:48:38;23.90;99.90
11446;DHT22;5779;64.178;15.432;2022-08-21T15:51:25;24.10;99.90
11446;DHT22;5779;64.178;15.432;2022-08-21T15:54:13;24.10;99.90
11446;DHT22;5779;64.178;15.432;2022-08-21T15:57:00;24.30;99.90
11446;DHT22;5779;64.178;15.432;2022-08-21T15:59:49;24.50;99.90
11446;DHT22;5779;64.178;15.432;2022-08-21T16:02:37;24.50;99.90
11446;DHT22;5779;64.178;15.432;2022-08-21T16:05:25;24.60;99.90
11446;DHT22;5779;64.178;15.432;2022-08-21T16:08:12;24.40;99.90
11446;DHT22;5779;64.178;15.432;2022-08-21T16:11:00;24.60;99.90
11446;DHT22;5779;64.178;15.432;2022-08-21T16:13:48;24.60;99.90
11446;DHT22;5779;64.178;15.432;2022-08-21T16:16:36;24.80;99.90
11446;DHT22;5779;64.178;15.432;2022-08-21T16:19:22;24.80;99.90
11446;DHT22;5779;64.178;15.432;2022-08-21T16:22:10;25.00;99.90
11446;DHT22;5779;64.178;15.432;2022-08-21T16:24:56;25.20;99.90
11446;DHT22;5779;64.178;15.432;2022-08-21T16:27:48;25.30;99.90
11446;DHT22;5779;64.178;15.432;2022-08-21T16:30:35;25.40;99.90
11446;DHT22;5779;64.178;15.432;2022-08-21T16:33:26;25.40;99.90
11446;DHT22;5779;64.178;15.432;2022-08-21T16:36:14;25.50;99.90
11446;DHT22;5779;64.178;15.432;2022-08-21T16:39:02;25.70;99.90
11446;DHT22;5779;64.178;15.432;2022-08-21T16:41:49;25.90;99.90
11446;DHT22;5779;64.178;15.432;2022-08-21T16:44:37;25.70;99.90
11446;DHT22;5779;64.178;15.432;2022-08-21T16:47:24;25.30;99.90
11446;DHT22;5779;64.178;15.432;2022-08-21T16:50:14;25.20;99.90
11446;DHT22;5779;64.178;15.432;2022-08-21T16:53:01;25.30;99.90
11446;DHT22;5779;64.178;15.432;2022-08-21T16:55:48;25.20;99.90
11446;DHT22;5779;64.178;15.432;2022-08-21T16:58:37;25.00;99.90
11446;DHT22;5779;64.178;15.432;2022-08-21T17:01:29;25.00;99.90
11446;DHT22;5779;64.178;15.432;2022-08-21T17:04:16;24.80;99.90
11446;DHT22;5779;64.178;15.432;2022-08-21T17:07:04;24.50;99.90
11446;DHT22;5779;64.178;15.432;2022-08-21T17:09:51;24.60;99.90
11446;DHT22;5779;64.178;15.432;2022-08-21T17:12:38;24.80;99.90
11446;DHT22;5779;64.178;15.432;2022-08-21T17:15:33;24.30;99.90
11446;DHT22;5779;64.178;15.432;2022-08-21T17:18:23;23.60;99.90
11446;DHT22;5779;64.178;15.432;2022-08-21T17:21:11;23.20;99.90
11446;DHT22;5779;64.178;15.432;2022-08-21T17:23:58;22.70;99.90
11446;DHT22;5779;64.178;15.432;2022-08-21T17:26:46;22.20;99.90
11446;DHT22;5779;64.178;15.432;2022-08-21T17:29:36;21.90;99.90
11446;DHT22;5779;64.178;15.432;2022-08-21T17:32:24;21.60;99.90
11446;DHT22;5779;64.178;15.432;2022-08-21T17:35:16;21.50;99.90
11446;DHT22;5779;64.178;15.432;2022-08-21T17:38:03;21.60;99.90
11446;DHT22;5779;64.178;15.432;2022-08-21T17:40:50;21.40;99.90
11446;DHT22;5779;64.178;15.432;2022-08-21T17:43:38;21.20;99.90
11446;DHT22;5779;64.178;15.432;2022-08-21T17:46:27;21.20;99.90
11446;DHT22;5779;64.178;15.432;2022-08-21T17:49:14;21.40;99.90
11446;DHT22;5779;64.178;15.432;2022-08-21T17:52:03;21.70;99.90